Time;durP1;ratioP1;P1;durP2;ratioP2;P2;SDS_P1;SDS_P2;PMS_P1;PMS_P2;Temp;Humidity;BMP_temperature;BMP_pressure;BME280_temperature;BME280_humidity;BME280_pressure;Samples;Min_cycle;Max_cycle;Signal;HPM_P1;HPM_P2
2021/09/25 00:00:10;;;;;;;14.88;5.45;;;16.30;86.70;;;;;;5076328;28;20675;-85
2021/09/25 00:02:37;;;;;;;7.93;4.85;;;16.30;86.80;;;;;;5075151;28;20179;-85
2021/09/25 00:05:04;;;;;;;10.75;5.22;;;16.30;86.80;;;;;;5075107;28;20172;-84
2021/09/25 00:07:30;;;;;;;8.40;4.88;;;16.30;86.90;;;;;;5075030;28;20392;-84
2021/09/25 00:09:55;;;;;;;15.10;5.57;;;16.20;87.20;;;;;;5076655;28;20226;-84
2021/09/25 00:12:21;;;;;;;9.02;5.45;;;16.30;87.00;;;;;;5074985;28;20179;-85
2021/09/25 00:14:47;;;;;;;9.50;5.82;;;16.30;87.00;;;;;;5074810;28;20183;-85
2021/09/25 00:17:13;;;;;;;11.77;5.63;;;16.30;87.20;;;;;;5076074;28;20250;-85
2021/09/25 00:19:40;;;;;;;12.77;6.57;;;16.20;87.40;;;;;;5076015;28;20171;-85
2021/09/25 00:22:07;;;;;;;13.43;6.47;;;16.20;87.50;;;;;;5076044;28;20168;-85
2021/09/25 00:24:33;;;;;;;11.82;6.03;;;16.30;87.50;;;;;;5076010;28;20278;-84
2021/09/25 00:26:58;;;;;;;15.98;6.15;;;16.20;87.70;;;;;;5076233;28;20593;-85
2021/09/25 00:29:24;;;;;;;12.25;6.88;;;16.30;87.70;;;;;;5075813;28;20226;-84
2021/09/25 00:31:50;;;;;;;19.88;7.10;;;16.20;87.70;;;;;;5075835;28;20206;-84
2021/09/25 00:34:17;;;;;;;10.90;6.60;;;16.30;87.70;;;;;;5075790;28;20583;-84
2021/09/25 00:36:43;;;;;;;11.68;7.03;;;16.30;87.70;;;;;;5075772;28;20201;-84
2021/09/25 00:39:09;;;;;;;14.45;6.78;;;16.30;87.80;;;;;;5075219;28;20240;-84
2021/09/25 00:41:35;;;;;;;12.73;7.35;;;16.30;87.80;;;;;;5074115;28;20270;-84
2021/09/25 00:44:00;;;;;;;16.38;9.68;;;16.30;88.00;;;;;;5074369;28;20695;-84
2021/09/25 00:46:27;;;;;;;12.32;7.45;;;16.30;88.10;;;;;;5075695;28;20254;-84
2021/09/25 00:48:53;;;;;;;16.17;8.43;;;16.30;88.10;;;;;;5075628;28;20195;-84
2021/09/25 00:51:19;;;;;;;16.52;8.88;;;16.30;88.30;;;;;;5074612;28;20175;-84
2021/09/25 00:53:45;;;;;;;15.60;7.38;;;16.30;88.60;;;;;;5075460;28;20171;-84
2021/09/25 00:56:11;;;;;;;15.30;6.88;;;16.20;88.60;;;;;;5074252;28;20186;-85
2021/09/25 00:58:38;;;;;;;14.52;7.57;;;16.20;88.70;;;;;;5075259;28;20215;-85
2021/09/25 01:01:05;;;;;;;14.65;7.07;;;16.20;88.80;;;;;;5074092;28;20179;-84
2021/09/25 01:03:31;;;;;;;14.15;7.10;;;16.20;88.80;;;;;;5075246;28;20274;-85
2021/09/25 01:05:57;;;;;;;12.88;7.50;;;16.20;88.90;;;;;;5075447;28;20182;-84
2021/09/25 01:08:23;;;;;;;13.90;7.57;;;16.20;88.80;;;;;;5073934;28;20201;-84
2021/09/25 01:10:53;;;;;;;11.20;6.47;;;16.20;88.90;;;;;;5075789;28;20198;-84
2021/09/25 01:13:21;;;;;;;16.08;8.20;;;16.20;89.00;;;;;;5073896;28;20183;-84
2021/09/25 01:15:47;;;;;;;15.30;8.05;;;16.20;89.00;;;;;;5074999;28;20266;-84
2021/09/25 01:18:13;;;;;;;12.50;7.18;;;16.20;89.20;;;;;;5073804;28;20242;-84
2021/09/25 01:20:38;;;;;;;17.20;7.72;;;16.20;89.20;;;;;;5075049;28;20175;-84
2021/09/25 01:23:04;;;;;;;13.25;7.60;;;16.20;89.20;;;;;;5073889;28;20675;-84
2021/09/25 01:25:31;;;;;;;15.13;7.57;;;16.20;89.20;;;;;;5073557;28;20168;-84
2021/09/25 01:27:57;;;;;;;13.52;7.85;;;16.10;89.10;;;;;;5074951;28;20206;-84
2021/09/25 01:30:23;;;;;;;16.08;7.55;;;16.20;89.30;;;;;;5074917;28;20163;-84
2021/09/25 01:32:50;;;;;;;14.00;8.40;;;16.10;89.50;;;;;;5073460;28;20220;-84
2021/09/25 01:35:18;;;;;;;20.42;8.13;;;16.10;89.60;;;;;;5073365;28;20643;-84
2021/09/25 01:37:48;;;;;;;16.65;8.15;;;16.10;89.70;;;;;;5074729;28;20198;-84
2021/09/25 01:40:15;;;;;;;13.20;7.85;;;16.10;89.80;;;;;;5073631;28;20639;-84
2021/09/25 01:42:41;;;;;;;15.73;8.93;;;16.10;89.80;;;;;;5073255;28;20179;-84
2021/09/25 01:45:07;;;;;;;18.50;8.70;;;16.10;89.80;;;;;;5073212;28;20197;-84
2021/09/25 01:47:33;;;;;;;24.08;7.97;;;16.00;90.10;;;;;;5073161;28;20191;-84
2021/09/25 01:50:02;;;;;;;14.45;7.95;;;16.00;90.30;;;;;;5073324;28;20174;-84
2021/09/25 01:52:28;;;;;;;19.90;8.68;;;16.00;90.40;;;;;;5073038;28;20182;-84
2021/09/25 01:54:54;;;;;;;16.88;8.82;;;16.00;90.60;;;;;;5074279;28;20206;-84
2021/09/25 01:57:19;;;;;;;16.52;9.75;;;16.00;90.80;;;;;;5074371;28;20203;-84
2021/09/25 01:59:46;;;;;;;21.13;9.77;;;15.90;91.00;;;;;;5072784;28;20609;-84
2021/09/25 02:02:12;;;;;;;15.82;9.73;;;15.90;91.30;;;;;;5072901;28;20186;-84
2021/09/25 02:04:45;;;;;;;21.23;10.50;;;15.90;91.50;;;;;;5072779;28;20613;-84
2021/09/25 02:07:11;;;;;;;27.52;10.68;;;15.90;91.60;;;;;;5072678;28;20254;-84
2021/09/25 02:09:37;;;;;;;17.02;10.82;;;15.80;91.80;;;;;;5072641;28;20657;-84
2021/09/25 02:12:03;;;;;;;19.95;10.57;;;15.80;91.80;;;;;;5072707;28;20670;-84
2021/09/25 02:14:28;;;;;;;16.73;11.23;;;15.80;91.80;;;;;;5074024;28;20195;-84
2021/09/25 02:16:54;;;;;;;19.63;11.65;;;15.90;91.80;;;;;;5073855;28;20171;-84
2021/09/25 02:19:20;;;;;;;24.55;12.40;;;15.80;92.10;;;;;;5072641;28;20722;-84
2021/09/25 02:21:45;;;;;;;21.17;11.98;;;15.80;92.20;;;;;;5073772;28;20184;-84
2021/09/25 02:24:13;;;;;;;19.83;12.20;;;15.80;92.20;;;;;;5073026;28;20199;-84
2021/09/25 02:26:39;;;;;;;29.35;13.15;;;15.80;92.30;;;;;;5074059;28;20166;-84
2021/09/25 02:29:04;;;;;;;23.55;13.00;;;15.80;92.30;;;;;;5072438;28;20312;-84
2021/09/25 02:31:30;;;;;;;20.15;12.23;;;15.80;92.30;;;;;;5073667;28;20584;-84
2021/09/25 02:33:56;;;;;;;32.45;14.57;;;15.80;92.40;;;;;;5073523;28;20179;-84
2021/09/25 02:36:21;;;;;;;25.48;13.65;;;15.80;92.60;;;;;;5073853;28;20175;-84
2021/09/25 02:38:47;;;;;;;27.80;14.40;;;15.80;92.70;;;;;;5072157;28;20207;-84
2021/09/25 02:41:13;;;;;;;22.77;13.77;;;15.80;92.80;;;;;;5073529;28;20225;-84
2021/09/25 02:43:38;;;;;;;23.35;14.00;;;15.80;92.80;;;;;;5072190;28;20203;-84
2021/09/25 02:46:04;;;;;;;28.55;13.75;;;15.80;92.90;;;;;;5073404;28;20560;-84
2021/09/25 02:48:30;;;;;;;25.48;14.73;;;15.80;92.90;;;;;;5072050;28;20269;-84
2021/09/25 02:50:55;;;;;;;29.02;14.45;;;15.80;92.80;;;;;;5072076;28;20701;-84
2021/09/25 02:53:21;;;;;;;23.98;15.07;;;15.80;92.70;;;;;;5073439;28;20172;-84
2021/09/25 02:55:47;;;;;;;25.33;14.63;;;15.80;92.80;;;;;;5071994;28;20565;-84
2021/09/25 02:58:12;;;;;;;27.33;15.70;;;15.80;92.70;;;;;;5071915;28;20206;-84
2021/09/25 03:00:38;;;;;;;30.25;16.27;;;15.80;92.80;;;;;;5072146;28;20556;-84
2021/09/25 03:03:04;;;;;;;27.55;15.65;;;15.80;92.70;;;;;;5071420;28;20264;-84
2021/09/25 03:05:30;;;;;;;27.77;16.08;;;15.80;92.80;;;;;;5071909;28;20569;-84
2021/09/25 03:07:55;;;;;;;19.83;13.70;;;15.80;92.70;;;;;;5071909;28;20203;-84
2021/09/25 03:10:21;;;;;;;25.05;15.52;;;15.90;92.80;;;;;;5073228;28;20193;-84
2021/09/25 03:12:47;;;;;;;26.15;15.18;;;15.90;92.80;;;;;;5071871;28;20698;-84
2021/09/25 03:15:12;;;;;;;33.13;16.20;;;15.90;92.90;;;;;;5071894;28;20639;-84
2021/09/25 03:17:38;;;;;;;22.50;14.68;;;15.80;93.00;;;;;;5072995;28;20188;-84
2021/09/25 03:20:06;;;;;;;20.98;15.75;;;15.80;93.20;;;;;;5071873;28;20171;-84
2021/09/25 03:22:32;;;;;;;29.90;17.77;;;15.80;93.30;;;;;;5071738;28;20250;-84
2021/09/25 03:24:58;;;;;;;23.85;17.08;;;15.70;93.50;;;;;;5073083;28;20262;-85
2021/09/25 03:27:25;;;;;;;27.00;18.02;;;15.80;93.60;;;;;;5072956;28;20175;-84
2021/09/25 03:29:51;;;;;;;26.85;16.73;;;15.80;93.60;;;;;;5072983;28;20225;-85
2021/09/25 03:32:18;;;;;;;32.13;18.95;;;15.80;93.70;;;;;;5071709;28;20647;-85
2021/09/25 03:34:43;;;;;;;28.15;18.85;;;15.70;93.80;;;;;;5071691;28;20179;-85
2021/09/25 03:37:10;;;;;;;29.35;19.48;;;15.80;93.80;;;;;;5072967;28;20238;-85
2021/09/25 03:39:36;;;;;;;26.63;18.63;;;15.80;93.80;;;;;;5071677;28;20643;-85
2021/09/25 03:42:02;;;;;;;31.27;21.17;;;15.80;93.90;;;;;;5072845;28;20183;-85
2021/09/25 03:44:28;;;;;;;29.27;20.40;;;15.80;94.00;;;;;;5071586;28;20226;-84
2021/09/25 03:46:55;;;;;;;26.55;18.88;;;15.80;94.00;;;;;;5072787;28;20627;-85
2021/09/25 03:49:21;;;;;;;32.60;22.55;;;15.80;94.10;;;;;;5071626;28;20191;-85
2021/09/25 03:51:46;;;;;;;29.27;21.02;;;15.80;94.20;;;;;;5071664;28;20176;-85
2021/09/25 03:54:12;;;;;;;30.80;20.40;;;15.80;94.20;;;;;;5071792;28;20596;-85
2021/09/25 03:56:38;;;;;;;31.08;21.55;;;15.80;94.30;;;;;;5071395;28;20552;-85
2021/09/25 03:59:03;;;;;;;32.13;20.48;;;15.80;94.30;;;;;;5071404;28;20211;-85
2021/09/25 04:01:29;;;;;;;30.55;20.95;;;15.80;94.30;;;;;;5071567;28;20254;-85
2021/09/25 04:03:56;;;;;;;35.60;22.38;;;15.80;94.30;;;;;;5072579;28;20202;-85
2021/09/25 04:06:23;;;;;;;37.60;22.90;;;15.90;94.20;;;;;;5071421;28;20693;-85
2021/09/25 04:08:49;;;;;;;32.58;20.88;;;15.90;94.20;;;;;;5072567;28;20652;-85
2021/09/25 04:11:14;;;;;;;29.42;20.90;;;15.90;94.20;;;;;;5071520;28;20203;-85
2021/09/25 04:13:40;;;;;;;36.13;24.60;;;15.90;94.10;;;;;;5072649;28;20172;-85
2021/09/25 04:16:06;;;;;;;33.50;22.13;;;15.90;94.10;;;;;;5073935;28;20178;-85
2021/09/25 04:18:31;;;;;;;36.80;23.55;;;16.00;94.00;;;;;;5076657;28;20211;-85
2021/09/25 04:20:57;;;;;;;41.55;23.00;;;15.90;94.00;;;;;;5074870;28;20575;-85
2021/09/25 04:23:22;;;;;;;34.45;21.98;;;16.00;94.00;;;;;;5074889;28;20237;-85
2021/09/25 04:25:48;;;;;;;36.50;22.70;;;16.00;94.00;;;;;;5074852;28;20287;-85
2021/09/25 04:28:14;;;;;;;42.92;24.27;;;16.00;94.00;;;;;;5075898;28;20183;-85
2021/09/25 04:30:40;;;;;;;40.88;26.50;;;16.00;94.00;;;;;;5074744;28;20171;-85
2021/09/25 04:33:08;;;;;;;43.20;26.48;;;16.00;94.00;;;;;;5074720;28;20183;-85
2021/09/25 04:35:34;;;;;;;38.80;24.17;;;16.00;94.00;;;;;;5074703;28;20175;-85
2021/09/25 04:38:00;;;;;;;39.47;22.80;;;16.00;94.00;;;;;;5074511;28;20199;-85
2021/09/25 04:40:26;;;;;;;42.25;26.08;;;16.00;94.10;;;;;;5074554;28;20261;-85
2021/09/25 04:42:52;;;;;;;52.38;28.48;;;16.10;94.10;;;;;;5074523;28;20221;-85
2021/09/25 04:45:18;;;;;;;40.08;27.02;;;16.00;94.10;;;;;;5074416;28;20175;-85
2021/09/25 04:47:45;;;;;;;49.45;27.38;;;16.10;94.10;;;;;;5075753;28;20275;-85
2021/09/25 04:50:13;;;;;;;44.88;27.70;;;16.10;94.10;;;;;;5075652;28;20167;-85
2021/09/25 04:52:39;;;;;;;45.13;28.73;;;16.00;94.10;;;;;;5074336;28;20175;-85
2021/09/25 04:55:06;;;;;;;43.47;27.45;;;16.00;94.20;;;;;;5074391;28;20179;-85
2021/09/25 04:57:32;;;;;;;51.78;29.38;;;16.00;94.20;;;;;;5075507;28;20286;-85
2021/09/25 04:59:58;;;;;;;45.63;28.17;;;16.00;94.30;;;;;;5074097;28;20202;-85
2021/09/25 05:02:24;;;;;;;45.20;27.20;;;16.00;94.30;;;;;;5074055;28;20175;-85
2021/09/25 05:04:50;;;;;;;42.17;26.90;;;16.10;94.30;;;;;;5075160;28;20703;-85
2021/09/25 05:07:16;;;;;;;49.38;28.55;;;16.00;94.30;;;;;;5073954;28;20266;-85
2021/09/25 05:09:41;;;;;;;53.10;30.42;;;16.00;94.30;;;;;;5075509;28;20172;-85
2021/09/25 05:12:07;;;;;;;53.97;30.15;;;16.10;94.30;;;;;;5075092;28;20171;-85
2021/09/25 05:14:35;;;;;;;54.33;31.13;;;16.00;94.30;;;;;;5075058;28;20264;-85
2021/09/25 05:17:02;;;;;;;55.83;31.52;;;16.00;94.30;;;;;;5073885;28;20176;-85
2021/09/25 05:19:28;;;;;;;60.42;32.47;;;16.00;94.40;;;;;;5074947;28;20196;-85
2021/09/25 05:21:54;;;;;;;51.72;29.52;;;16.00;94.40;;;;;;5074982;28;20182;-85
2021/09/25 05:24:20;;;;;;;57.60;32.13;;;16.00;94.40;;;;;;5073683;28;20757;-85
2021/09/25 05:26:49;;;;;;;66.65;32.83;;;16.00;94.40;;;;;;5074563;28;20199;-85
2021/09/25 05:29:16;;;;;;;60.95;33.60;;;16.00;94.40;;;;;;5074719;28;20698;-85
2021/09/25 05:31:43;;;;;;;57.95;32.55;;;16.00;94.40;;;;;;5073587;28;20171;-85
2021/09/25 05:34:08;;;;;;;66.22;32.42;;;16.00;94.40;;;;;;5074683;28;20224;-85
2021/09/25 05:36:34;;;;;;;68.95;33.55;;;16.10;94.40;;;;;;5074720;28;20167;-85
2021/09/25 05:39:00;;;;;;;59.40;32.65;;;16.10;94.30;;;;;;5073313;28;20667;-85
2021/09/25 05:41:25;;;;;;;70.60;33.67;;;16.10;94.30;;;;;;5073425;28;20176;-85
2021/09/25 05:43:53;;;;;;;70.45;32.65;;;16.10;94.30;;;;;;5073186;28;20671;-85
2021/09/25 05:46:19;;;;;;;63.08;32.30;;;16.10;94.20;;;;;;5074451;28;20179;-85
2021/09/25 05:48:47;;;;;;;65.43;32.65;;;16.10;94.20;;;;;;5074312;28;20183;-85
2021/09/25 05:51:14;;;;;;;63.10;30.48;;;16.10;94.10;;;;;;5073204;28;20655;-85
2021/09/25 05:53:39;;;;;;;69.43;32.15;;;16.10;94.10;;;;;;5074311;28;20650;-85
2021/09/25 05:56:05;;;;;;;62.80;30.58;;;16.10;94.10;;;;;;5073056;28;20182;-85
2021/09/25 05:58:31;;;;;;;63.97;31.70;;;16.20;94.10;;;;;;5072714;28;20207;-85
2021/09/25 06:00:56;;;;;;;66.13;31.92;;;16.20;94.00;;;;;;5074449;28;20543;-85
2021/09/25 06:03:22;;;;;;;59.30;31.02;;;16.20;94.00;;;;;;5072832;28;20753;-85
2021/09/25 06:05:48;;;;;;;60.05;30.25;;;16.10;94.00;;;;;;5072788;28;20171;-86
2021/09/25 06:08:14;;;;;;;55.15;31.17;;;16.10;94.00;;;;;;5074051;28;20198;-85
2021/09/25 06:10:40;;;;;;;57.15;30.33;;;16.20;94.00;;;;;;5073970;28;20170;-85
2021/09/25 06:13:07;;;;;;;53.88;29.95;;;16.20;93.90;;;;;;5072727;28;20175;-85
2021/09/25 06:15:35;;;;;;;60.15;31.02;;;16.20;93.90;;;;;;5072579;28;20211;-85
2021/09/25 06:18:01;;;;;;;70.80;28.77;;;16.20;93.90;;;;;;5073790;28;20194;-85
2021/09/25 06:20:27;;;;;;;49.75;27.95;;;16.20;93.80;;;;;;5072605;28;20266;-85
2021/09/25 06:22:53;;;;;;;63.28;30.42;;;16.20;93.80;;;;;;5074071;28;20175;-85
2021/09/25 06:25:18;;;;;;;50.30;28.73;;;16.20;93.70;;;;;;5073845;28;20250;-85
2021/09/25 06:27:44;;;;;;;63.72;30.92;;;16.30;93.60;;;;;;5072369;28;20564;-85
2021/09/25 06:30:10;;;;;;;56.17;27.45;;;16.30;93.50;;;;;;5073618;28;20168;-85
2021/09/25 06:32:36;;;;;;;52.30;26.02;;;16.30;93.40;;;;;;5072405;28;20179;-85
2021/09/25 06:35:04;;;;;;;45.65;25.15;;;16.30;93.20;;;;;;5073691;28;20667;-85
2021/09/25 06:37:31;;;;;;;54.97;26.15;;;16.30;93.20;;;;;;5071575;28;20231;-85
2021/09/25 06:39:57;;;;;;;45.65;25.05;;;16.30;93.10;;;;;;5072282;28;20182;-85
2021/09/25 06:42:22;;;;;;;51.17;26.15;;;16.30;93.20;;;;;;5073521;28;20190;-85
2021/09/25 06:44:48;;;;;;;49.60;25.00;;;16.30;93.20;;;;;;5072073;28;20669;-85
2021/09/25 06:47:14;;;;;;;46.20;23.55;;;16.30;93.30;;;;;;5072045;28;20544;-85
2021/09/25 06:49:40;;;;;;;43.83;25.08;;;16.30;93.30;;;;;;5073351;28;20171;-86
2021/09/25 06:52:06;;;;;;;45.78;24.92;;;16.30;93.20;;;;;;5072111;28;20689;-85
2021/09/25 06:54:35;;;;;;;41.33;23.15;;;16.40;93.20;;;;;;5073434;28;20229;-85
2021/09/25 06:57:01;;;;;;;42.70;21.77;;;16.40;93.10;;;;;;5073523;28;20164;-85
2021/09/25 06:59:28;;;;;;;38.38;22.75;;;16.40;93.10;;;;;;5071943;28;20236;-85
2021/09/25 07:01:53;;;;;;;41.42;22.77;;;16.40;93.00;;;;;;5072090;28;20228;-85
2021/09/25 07:04:19;;;;;;;43.35;23.15;;;16.50;93.00;;;;;;5071908;28;20207;-86
2021/09/25 07:06:45;;;;;;;37.42;20.58;;;16.50;93.00;;;;;;5072005;28;20186;-86
2021/09/25 07:09:11;;;;;;;43.22;22.15;;;16.50;92.90;;;;;;5073114;28;20208;-84
2021/09/25 07:11:36;;;;;;;46.08;22.20;;;16.50;92.70;;;;;;5072038;28;20258;-85
2021/09/25 07:14:03;;;;;;;33.28;19.48;;;16.60;92.70;;;;;;5073452;28;20167;-85
2021/09/25 07:16:29;;;;;;;46.50;22.05;;;16.60;92.80;;;;;;5072403;28;20190;-85
2021/09/25 07:18:55;;;;;;;30.15;19.33;;;16.50;92.80;;;;;;5073381;28;20191;-85
2021/09/25 07:21:20;;;;;;;34.60;20.10;;;16.50;92.70;;;;;;5071878;28;20183;-85
2021/09/25 07:23:46;;;;;;;45.33;22.73;;;16.50;92.60;;;;;;5071780;28;20577;-85
2021/09/25 07:26:12;;;;;;;38.20;19.23;;;16.50;92.70;;;;;;5073372;28;20192;-85
2021/09/25 07:28:37;;;;;;;44.53;19.85;;;16.50;92.60;;;;;;5073072;28;20192;-85
2021/09/25 07:31:05;;;;;;;36.22;18.88;;;16.60;92.70;;;;;;5073082;28;20627;-85
2021/09/25 07:33:31;;;;;;;42.63;19.55;;;16.60;92.60;;;;;;5072966;28;20168;-85
2021/09/25 07:35:57;;;;;;;37.20;20.13;;;16.60;92.60;;;;;;5071710;28;20761;-85
2021/09/25 07:38:23;;;;;;;37.05;18.92;;;16.70;92.60;;;;;;5071620;28;20207;-85
2021/09/25 07:40:52;;;;;;;27.95;17.83;;;16.60;92.40;;;;;;5072977;28;20643;-85
2021/09/25 07:43:18;;;;;;;35.53;18.88;;;16.70;92.40;;;;;;5071547;28;20199;-85
2021/09/25 07:45:44;;;;;;;34.33;17.02;;;16.70;92.30;;;;;;5071699;28;20172;-85
2021/09/25 07:48:09;;;;;;;44.88;19.50;;;16.70;92.20;;;;;;5071542;28;20244;-85
2021/09/25 07:50:35;;;;;;;40.30;18.70;;;16.70;92.20;;;;;;5076317;28;20244;-85
2021/09/25 07:53:01;;;;;;;29.85;16.88;;;16.80;92.30;;;;;;5076929;28;20654;-85
2021/09/25 07:55:27;;;;;;;29.55;16.83;;;16.80;92.00;;;;;;5075329;28;20175;-85
2021/09/25 07:57:53;;;;;;;33.20;18.23;;;16.90;92.00;;;;;;5075130;28;20229;-85
2021/09/25 08:00:19;;;;;;;31.77;18.67;;;17.00;91.90;;;;;;5076686;28;20168;-86
2021/09/25 08:02:45;;;;;;;37.35;18.42;;;17.00;91.90;;;;;;5077231;28;20174;-86
2021/09/25 08:05:11;;;;;;;31.05;18.75;;;17.00;91.90;;;;;;5075660;28;20596;-85
2021/09/25 08:07:37;;;;;;;36.05;18.55;;;17.10;91.90;;;;;;5076574;28;20211;-86
2021/09/25 08:10:06;;;;;;;24.10;15.70;;;17.10;91.80;;;;;;5075165;28;20619;-85
2021/09/25 08:12:32;;;;;;;24.67;16.50;;;17.10;91.40;;;;;;5075299;28;20172;-85
2021/09/25 08:14:58;;;;;;;38.70;17.77;;;17.20;91.50;;;;;;5075196;28;20241;-85
2021/09/25 08:17:25;;;;;;;32.50;16.73;;;17.20;91.50;;;;;;5075279;28;20179;-85
2021/09/25 08:19:50;;;;;;;25.90;16.38;;;17.10;91.30;;;;;;5075051;28;20176;-85
2021/09/25 08:22:16;;;;;;;29.45;16.20;;;17.20;91.50;;;;;;5076376;28;20550;-85
2021/09/25 08:24:43;;;;;;;27.95;17.08;;;17.20;91.30;;;;;;5076162;28;20690;-85
2021/09/25 08:27:10;;;;;;;25.70;15.15;;;17.30;91.30;;;;;;5076144;28;20623;-85
2021/09/25 08:29:36;;;;;;;30.80;15.82;;;17.30;91.20;;;;;;5074803;28;20195;-85
2021/09/25 08:32:02;;;;;;;24.63;16.40;;;17.30;91.40;;;;;;5076184;28;20183;-85
2021/09/25 08:34:28;;;;;;;24.95;16.02;;;17.40;91.30;;;;;;5074717;28;20183;-85
2021/09/25 08:36:53;;;;;;;30.98;17.88;;;17.40;90.90;;;;;;5074734;28;20178;-85
2021/09/25 08:39:19;;;;;;;28.38;18.55;;;17.50;91.20;;;;;;5074925;28;20199;-86
2021/09/25 08:41:46;;;;;;;33.88;18.02;;;17.50;90.90;;;;;;5074524;28;20187;-86
2021/09/25 08:44:12;;;;;;;29.23;18.23;;;17.50;90.80;;;;;;5075773;28;20195;-86
2021/09/25 08:46:38;;;;;;;34.47;18.58;;;17.60;90.80;;;;;;5076063;28;20594;-86
2021/09/25 08:49:05;;;;;;;29.52;18.73;;;17.60;90.80;;;;;;5074219;28;20606;-86
2021/09/25 08:51:31;;;;;;;33.58;18.83;;;17.70;90.70;;;;;;5074453;28;20177;-86
2021/09/25 08:53:56;;;;;;;34.92;18.33;;;17.70;90.60;;;;;;5074346;28;20261;-85
2021/09/25 08:56:22;;;;;;;29.35;18.15;;;17.70;90.40;;;;;;5075560;28;20167;-85
2021/09/25 08:58:48;;;;;;;30.15;18.08;;;17.70;90.40;;;;;;5074086;28;20214;-85
2021/09/25 09:01:24;;;;;;;32.78;17.30;;;17.70;90.30;;;;;;5074956;28;20262;-85
2021/09/25 09:03:51;;;;;;;31.13;18.27;;;17.70;90.40;;;;;;5075556;28;20230;-85
2021/09/25 09:06:26;;;;;;;39.20;20.33;;;17.70;90.30;;;;;;5074093;28;20638;-85
2021/09/25 09:08:53;;;;;;;23.02;18.15;;;17.70;90.40;;;;;;5075681;28;20261;-86
2021/09/25 09:11:22;;;;;;;29.92;17.95;;;17.80;90.40;;;;;;5074310;28;20175;-85
2021/09/25 09:13:50;;;;;;;29.75;17.42;;;17.80;90.00;;;;;;5073976;28;20179;-85
2021/09/25 09:16:16;;;;;;;30.50;16.48;;;17.90;90.40;;;;;;5075343;28;20178;-85
2021/09/25 09:18:45;;;;;;;24.60;16.02;;;17.90;90.10;;;;;;5075285;28;20274;-85
2021/09/25 09:21:12;;;;;;;24.77;15.30;;;17.90;89.60;;;;;;5075564;28;20171;-85
2021/09/25 09:23:43;;;;;;;22.48;14.95;;;18.00;89.50;;;;;;5075729;28;20671;-85
2021/09/25 09:26:12;;;;;;;27.13;15.43;;;18.00;89.40;;;;;;5075105;28;20158;-85
2021/09/25 09:28:39;;;;;;;26.77;16.67;;;18.10;89.40;;;;;;5073762;28;20195;-85
2021/09/25 09:31:07;;;;;;;29.13;15.05;;;18.20;89.50;;;;;;5074897;28;20222;-85
2021/09/25 09:33:45;;;;;;;22.85;15.20;;;18.30;89.40;;;;;;5075060;28;20258;-85
2021/09/25 09:36:42;;;;;;;26.42;14.25;;;18.30;89.10;;;;;;5073786;28;20171;-85
2021/09/25 09:39:20;;;;;;;27.88;15.43;;;18.40;89.20;;;;;;5073453;28;20203;-85
2021/09/25 09:41:48;;;;;;;24.55;14.63;;;18.40;88.80;;;;;;5073453;28;20179;-85
2021/09/25 09:44:26;;;;;;;29.42;14.95;;;18.40;88.50;;;;;;5073755;28;20671;-85
2021/09/25 09:46:53;;;;;;;22.20;15.35;;;18.50;89.00;;;;;;5073420;28;20171;-85
2021/09/25 09:49:25;;;;;;;20.88;15.65;;;18.50;89.10;;;;;;5073226;28;20195;-85
2021/09/25 09:51:56;;;;;;;29.50;16.27;;;18.40;89.10;;;;;;5073505;28;20251;-85
2021/09/25 09:54:28;;;;;;;22.80;15.95;;;18.40;88.50;;;;;;5073581;28;20164;-85
2021/09/25 09:56:59;;;;;;;21.38;15.55;;;18.50;89.00;;;;;;5073903;28;20186;-85
2021/09/25 09:59:26;;;;;;;22.42;14.80;;;18.50;89.00;;;;;;5073687;28;20773;-85
2021/09/25 10:01:52;;;;;;;24.02;14.90;;;18.50;88.70;;;;;;5074079;28;20183;-86
2021/09/25 10:04:19;;;;;;;24.88;15.25;;;18.60;88.80;;;;;;5073608;28;20210;-86
2021/09/25 10:06:45;;;;;;;26.60;15.10;;;18.60;88.30;;;;;;5073539;28;20547;-86
2021/09/25 10:09:25;;;;;;;25.02;15.82;;;18.70;88.50;;;;;;5073314;28;20226;-86
2021/09/25 10:11:53;;;;;;;18.73;14.27;;;18.70;88.30;;;;;;5074254;28;20152;-85
2021/09/25 10:14:22;;;;;;;21.23;14.40;;;18.70;88.20;;;;;;5073584;28;20724;-85
2021/09/25 10:16:49;;;;;;;24.38;14.88;;;18.70;88.40;;;;;;5073794;28;20220;-85
2021/09/25 10:19:18;;;;;;;20.88;15.30;;;18.80;87.80;;;;;;5073984;28;20587;-85
2021/09/25 10:21:46;;;;;;;22.95;14.40;;;18.70;88.30;;;;;;5074066;28;20175;-85
2021/09/25 10:24:20;;;;;;;21.08;13.98;;;18.80;88.30;;;;;;5073638;28;20290;-85
2021/09/25 10:26:47;;;;;;;29.30;16.35;;;18.90;87.50;;;;;;5073137;28;20210;-85
2021/09/25 10:29:19;;;;;;;26.10;14.85;;;19.10;87.70;;;;;;5072793;28;20195;-85
2021/09/25 10:31:46;;;;;;;23.83;13.73;;;19.20;87.70;;;;;;5072927;28;20221;-85
2021/09/25 10:34:26;;;;;;;15.02;11.70;;;19.50;87.40;;;;;;5072546;28;20226;-85
2021/09/25 10:36:53;;;;;;;22.10;12.32;;;19.50;86.60;;;;;;5073103;28;20201;-86
2021/09/25 10:39:26;;;;;;;18.20;11.85;;;19.40;86.10;;;;;;5072243;28;20252;-86
2021/09/25 10:42:13;;;;;;;19.50;12.10;;;19.50;85.60;;;;;;5073539;28;20662;-86
2021/09/25 10:44:50;;;;;;;17.77;12.38;;;19.50;85.90;;;;;;5073430;28;20226;-86
2021/09/25 10:47:20;;;;;;;16.75;11.82;;;19.30;86.10;;;;;;5073451;28;20619;-86
2021/09/25 10:49:56;;;;;;;17.75;11.45;;;19.50;86.20;;;;;;5072158;28;20195;-86
2021/09/25 10:52:50;;;;;;;21.30;12.43;;;19.40;86.00;;;;;;5072116;28;20163;-86
2021/09/25 10:55:37;;;;;;;16.73;11.85;;;19.30;86.20;;;;;;5073425;28;20175;-86
2021/09/25 10:58:26;;;;;;;21.10;13.13;;;19.20;85.50;;;;;;5073484;28;20202;-86
2021/09/25 11:01:05;;;;;;;16.48;13.50;;;19.10;86.50;;;;;;5072052;28;20179;-86
2021/09/25 11:03:46;;;;;;;21.25;13.50;;;19.20;86.70;;;;;;5073395;28;20203;-86
2021/09/25 11:06:26;;;;;;;21.10;13.40;;;19.10;86.20;;;;;;5073817;28;20198;-86
2021/09/25 11:08:54;;;;;;;19.73;13.30;;;19.10;86.10;;;;;;5071964;28;20194;-86
2021/09/25 11:11:35;;;;;;;24.65;12.57;;;19.30;86.60;;;;;;5072008;28;20213;-86
2021/09/25 11:14:00;;;;;;;23.42;13.25;;;19.30;86.30;;;;;;5071941;28;20187;-86
2021/09/25 11:16:59;;;;;;;22.48;13.07;;;19.30;86.20;;;;;;5073178;28;20647;-86
2021/09/25 11:19:25;;;;;;;27.90;12.45;;;19.30;85.70;;;;;;5072971;28;20194;-86
2021/09/25 11:22:06;;;;;;;19.08;11.85;;;19.40;85.60;;;;;;5071822;28;20175;-86
2021/09/25 11:24:42;;;;;;;17.13;11.73;;;19.40;85.40;;;;;;5073649;28;20191;-86
2021/09/25 11:27:12;;;;;;;19.17;11.35;;;19.50;85.10;;;;;;5077187;28;20674;-86
2021/09/25 11:30:19;;;;;;;18.77;10.48;;;19.60;84.80;;;;;;5075809;28;20186;-86
2021/09/25 11:32:54;;;;;;;17.33;10.38;;;19.50;84.30;;;;;;5075794;28;20246;-86
2021/09/25 11:35:23;;;;;;;19.35;10.65;;;19.60;84.70;;;;;;5076992;28;20175;-86
2021/09/25 11:37:59;;;;;;;21.35;11.00;;;19.60;84.40;;;;;;5075633;28;20195;-86
2021/09/25 11:40:28;;;;;;;17.27;9.50;;;19.70;84.90;;;;;;5075826;28;20631;-86
2021/09/25 11:43:11;;;;;;;17.73;11.05;;;19.80;84.40;;;;;;5076759;28;20179;-86
2021/09/25 11:45:39;;;;;;;19.65;10.98;;;19.80;84.00;;;;;;5076828;28;20159;-86
2021/09/25 11:48:07;;;;;;;15.10;9.23;;;19.70;83.10;;;;;;5075374;28;20667;-86
2021/09/25 11:50:36;;;;;;;16.25;9.63;;;19.80;83.90;;;;;;5076801;28;20188;-86
2021/09/25 11:53:05;;;;;;;16.05;10.27;;;19.90;84.80;;;;;;5076622;28;20164;-85
2021/09/25 11:55:32;;;;;;;14.35;9.48;;;19.80;84.40;;;;;;5075620;28;20182;-86
2021/09/25 11:58:00;;;;;;;14.43;8.50;;;19.80;84.40;;;;;;5076370;28;20221;-86
2021/09/25 12:00:38;;;;;;;15.65;8.18;;;19.80;83.60;;;;;;5076848;28;20148;-86
2021/09/25 12:03:06;;;;;;;15.10;8.82;;;19.90;83.90;;;;;;5075154;28;20586;-86
2021/09/25 12:05:37;;;;;;;18.42;7.90;;;19.80;83.20;;;;;;5075181;28;20172;-86
2021/09/25 12:08:04;;;;;;;15.10;8.45;;;19.90;83.80;;;;;;5075126;28;20191;-86
2021/09/25 12:10:34;;;;;;;14.20;9.13;;;19.80;83.60;;;;;;5075086;28;20168;-86
2021/09/25 12:13:26;;;;;;;15.85;9.20;;;19.80;83.60;;;;;;5075006;28;20329;-86
2021/09/25 12:15:54;;;;;;;19.40;8.95;;;19.60;84.20;;;;;;5076259;28;20166;-86
2021/09/25 12:18:24;;;;;;;17.90;8.90;;;19.70;84.30;;;;;;5076415;28;20195;-85
2021/09/25 12:21:01;;;;;;;16.27;7.88;;;19.80;84.50;;;;;;5076067;28;20160;-85
2021/09/25 12:23:34;;;;;;;18.20;7.78;;;20.10;83.90;;;;;;5075049;28;20653;-86
2021/09/25 12:26:00;;;;;;;14.25;8.18;;;20.40;81.60;;;;;;5074795;28;20159;-86
2021/09/25 12:28:32;;;;;;;15.32;7.40;;;20.70;82.00;;;;;;5076213;28;20195;-86
2021/09/25 12:31:07;;;;;;;14.60;7.60;;;21.30;81.70;;;;;;5076271;28;20182;-86